sensor_id;sensor_type;location;lat;lon;timestamp;temperature;humidity
5086;DHT22;4715;51.660;7.082;2023-08-30T00:01:34;16.60;99.90
5086;DHT22;4715;51.660;7.082;2023-08-30T00:03:56;16.60;99.90
5086;DHT22;4715;51.660;7.082;2023-08-30T00:06:19;16.50;99.90
5086;DHT22;4715;51.660;7.082;2023-08-30T00:08:41;16.50;99.90
5086;DHT22;4715;51.660;7.082;2023-08-30T00:11:03;16.50;99.90
5086;DHT22;4715;51.660;7.082;2023-08-30T00:13:25;16.60;99.90
5086;DHT22;4715;51.660;7.082;2023-08-30T00:15:47;16.60;99.90
5086;DHT22;4715;51.660;7.082;2023-08-30T00:18:09;16.60;99.90
5086;DHT22;4715;51.660;7.082;2023-08-30T00:20:31;16.70;99.90
5086;DHT22;4715;51.660;7.082;2023-08-30T00:22:54;16.70;99.90
5086;DHT22;4715;51.660;7.082;2023-08-30T00:25:16;16.70;99.90
5086;DHT22;4715;51.660;7.082;2023-08-30T00:27:38;16.60;99.90
5086;DHT22;4715;51.660;7.082;2023-08-30T00:29:59;16.70;99.90
5086;DHT22;4715;51.660;7.082;2023-08-30T00:32:21;16.70;99.90
5086;DHT22;4715;51.660;7.082;2023-08-30T00:34:43;16.60;99.90
5086;DHT22;4715;51.660;7.082;2023-08-30T00:37:05;16.60;99.90
5086;DHT22;4715;51.660;7.082;2023-08-30T00:39:28;16.50;99.90
5086;DHT22;4715;51.660;7.082;2023-08-30T00:41:50;16.50;99.90
5086;DHT22;4715;51.660;7.082;2023-08-30T00:44:12;16.40;99.90
5086;DHT22;4715;51.660;7.082;2023-08-30T00:46:33;16.40;99.90
5086;DHT22;4715;51.660;7.082;2023-08-30T00:48:56;16.30;99.90
5086;DHT22;4715;51.660;7.082;2023-08-30T00:51:18;16.20;99.90
5086;DHT22;4715;51.660;7.082;2023-08-30T00:53:40;16.20;99.90
5086;DHT22;4715;51.660;7.082;2023-08-30T00:56:04;16.10;99.90
5086;DHT22;4715;51.660;7.082;2023-08-30T00:58:26;16.10;99.90
5086;DHT22;4715;51.660;7.082;2023-08-30T01:00:48;16.10;99.90
5086;DHT22;4715;51.660;7.082;2023-08-30T01:03:10;16.00;99.90
5086;DHT22;4715;51.660;7.082;2023-08-30T01:05:32;16.00;99.90
5086;DHT22;4715;51.660;7.082;2023-08-30T01:07:54;16.00;99.90
5086;DHT22;4715;51.660;7.082;2023-08-30T01:10:16;16.10;99.90
5086;DHT22;4715;51.660;7.082;2023-08-30T01:12:47;16.00;99.90
5086;DHT22;4715;51.660;7.082;2023-08-30T01:15:11;16.00;99.90
5086;DHT22;4715;51.660;7.082;2023-08-30T01:17:35;16.00;99.90
5086;DHT22;4715;51.660;7.082;2023-08-30T01:20:00;16.00;99.90
5086;DHT22;4715;51.660;7.082;2023-08-30T01:22:35;16.00;99.90
5086;DHT22;4715;51.660;7.082;2023-08-30T01:25:09;16.10;99.90
5086;DHT22;4715;51.660;7.082;2023-08-30T01:27:36;16.10;99.90
5086;DHT22;4715;51.660;7.082;2023-08-30T01:29:58;16.00;99.90
5086;DHT22;4715;51.660;7.082;2023-08-30T01:32:21;16.00;99.90
5086;DHT22;4715;51.660;7.082;2023-08-30T01:34:46;16.00;99.90
5086;DHT22;4715;51.660;7.082;2023-08-30T01:37:09;15.90;99.90
5086;DHT22;4715;51.660;7.082;2023-08-30T01:39:34;15.90;99.90
5086;DHT22;4715;51.660;7.082;2023-08-30T01:41:59;15.80;99.90
5086;DHT22;4715;51.660;7.082;2023-08-30T01:44:23;15.80;99.90
5086;DHT22;4715;51.660;7.082;2023-08-30T01:46:45;15.70;99.90
5086;DHT22;4715;51.660;7.082;2023-08-30T01:49:08;15.60;99.90
5086;DHT22;4715;51.660;7.082;2023-08-30T01:51:31;15.60;99.90
5086;DHT22;4715;51.660;7.082;2023-08-30T01:53:54;15.60;99.90
5086;DHT22;4715;51.660;7.082;2023-08-30T01:56:17;15.60;99.90
5086;DHT22;4715;51.660;7.082;2023-08-30T01:58:39;15.60;99.90
5086;DHT22;4715;51.660;7.082;2023-08-30T02:01:02;15.60;99.90
5086;DHT22;4715;51.660;7.082;2023-08-30T02:03:27;15.70;99.90
5086;DHT22;4715;51.660;7.082;2023-08-30T02:05:57;15.70;99.90
5086;DHT22;4715;51.660;7.082;2023-08-30T02:08:26;15.70;99.90
5086;DHT22;4715;51.660;7.082;2023-08-30T02:11:02;15.80;99.90
5086;DHT22;4715;51.660;7.082;2023-08-30T02:13:28;15.80;99.90
5086;DHT22;4715;51.660;7.082;2023-08-30T02:15:52;15.80;99.90
5086;DHT22;4715;51.660;7.082;2023-08-30T02:18:17;15.80;99.90
5086;DHT22;4715;51.660;7.082;2023-08-30T02:20:39;15.80;99.90
5086;DHT22;4715;51.660;7.082;2023-08-30T02:23:01;15.80;99.90
5086;DHT22;4715;51.660;7.082;2023-08-30T02:25:24;15.80;99.90
5086;DHT22;4715;51.660;7.082;2023-08-30T02:28:02;15.80;99.90
5086;DHT22;4715;51.660;7.082;2023-08-30T02:30:24;15.70;99.90
5086;DHT22;4715;51.660;7.082;2023-08-30T02:32:46;15.70;99.90
5086;DHT22;4715;51.660;7.082;2023-08-30T02:35:12;15.70;99.90
5086;DHT22;4715;51.660;7.082;2023-08-30T02:37:37;15.70;99.90
5086;DHT22;4715;51.660;7.082;2023-08-30T02:40:01;15.70;99.90
5086;DHT22;4715;51.660;7.082;2023-08-30T02:42:23;15.70;99.90
5086;DHT22;4715;51.660;7.082;2023-08-30T02:44:46;15.80;99.90
5086;DHT22;4715;51.660;7.082;2023-08-30T02:47:11;15.80;99.90
5086;DHT22;4715;51.660;7.082;2023-08-30T02:49:33;15.90;99.90
5086;DHT22;4715;51.660;7.082;2023-08-30T02:51:57;15.90;99.90
5086;DHT22;4715;51.660;7.082;2023-08-30T02:54:22;16.00;99.90
5086;DHT22;4715;51.660;7.082;2023-08-30T02:56:46;16.00;99.90
5086;DHT22;4715;51.660;7.082;2023-08-30T02:59:08;16.00;99.90
5086;DHT22;4715;51.660;7.082;2023-08-30T03:01:32;16.00;99.90
5086;DHT22;4715;51.660;7.082;2023-08-30T03:03:55;16.00;99.90
5086;DHT22;4715;51.660;7.082;2023-08-30T03:06:17;16.00;99.90
5086;DHT22;4715;51.660;7.082;2023-08-30T03:09:02;15.90;99.90
5086;DHT22;4715;51.660;7.082;2023-08-30T03:11:25;16.00;99.90
5086;DHT22;4715;51.660;7.082;2023-08-30T03:13:52;15.90;99.90
5086;DHT22;4715;51.660;7.082;2023-08-30T03:16:20;15.90;99.90
5086;DHT22;4715;51.660;7.082;2023-08-30T03:18:44;15.90;99.90
5086;DHT22;4715;51.660;7.082;2023-08-30T03:21:07;15.90;99.90
5086;DHT22;4715;51.660;7.082;2023-08-30T03:23:30;15.90;99.90
5086;DHT22;4715;51.660;7.082;2023-08-30T03:25:54;15.90;99.90
5086;DHT22;4715;51.660;7.082;2023-08-30T03:28:19;15.90;99.90
5086;DHT22;4715;51.660;7.082;2023-08-30T03:30:43;15.90;99.90
5086;DHT22;4715;51.660;7.082;2023-08-30T03:33:05;15.80;99.90
5086;DHT22;4715;51.660;7.082;2023-08-30T03:35:27;15.80;99.90
5086;DHT22;4715;51.660;7.082;2023-08-30T03:37:51;15.80;99.90
5086;DHT22;4715;51.660;7.082;2023-08-30T03:40:14;15.80;99.90
5086;DHT22;4715;51.660;7.082;2023-08-30T03:42:37;15.80;99.90
5086;DHT22;4715;51.660;7.082;2023-08-30T03:45:03;15.90;99.90
5086;DHT22;4715;51.660;7.082;2023-08-30T03:47:26;15.90;99.90
5086;DHT22;4715;51.660;7.082;2023-08-30T03:49:48;15.80;99.90
5086;DHT22;4715;51.660;7.082;2023-08-30T03:52:12;15.80;99.90
5086;DHT22;4715;51.660;7.082;2023-08-30T03:54:35;15.80;99.90
5086;DHT22;4715;51.660;7.082;2023-08-30T03:57:00;15.80;99.90
5086;DHT22;4715;51.660;7.082;2023-08-30T03:59:24;15.80;99.90
5086;DHT22;4715;51.660;7.082;2023-08-30T04:01:48;15.70;99.90
5086;DHT22;4715;51.660;7.082;2023-08-30T04:04:10;15.70;99.90
5086;DHT22;4715;51.660;7.082;2023-08-30T04:06:32;15.70;99.90
5086;DHT22;4715;51.660;7.082;2023-08-30T04:08:53;15.70;99.90
5086;DHT22;4715;51.660;7.082;2023-08-30T04:11:15;15.70;99.90
5086;DHT22;4715;51.660;7.082;2023-08-30T04:13:37;15.70;99.90
5086;DHT22;4715;51.660;7.082;2023-08-30T04:16:00;15.70;99.90
5086;DHT22;4715;51.660;7.082;2023-08-30T04:18:22;15.70;99.90
5086;DHT22;4715;51.660;7.082;2023-08-30T04:20:45;15.70;99.90
5086;DHT22;4715;51.660;7.082;2023-08-30T04:23:07;15.70;99.90
5086;DHT22;4715;51.660;7.082;2023-08-30T04:25:29;15.60;99.90
5086;DHT22;4715;51.660;7.082;2023-08-30T04:27:51;15.60;99.90
5086;DHT22;4715;51.660;7.082;2023-08-30T04:30:14;15.60;99.90
5086;DHT22;4715;51.660;7.082;2023-08-30T04:32:43;15.60;99.90
5086;DHT22;4715;51.660;7.082;2023-08-30T04:35:08;15.60;99.90
5086;DHT22;4715;51.660;7.082;2023-08-30T04:37:30;15.60;99.90
5086;DHT22;4715;51.660;7.082;2023-08-30T04:39:52;15.60;99.90
5086;DHT22;4715;51.660;7.082;2023-08-30T04:42:14;15.70;99.90
5086;DHT22;4715;51.660;7.082;2023-08-30T04:44:36;15.70;99.90
5086;DHT22;4715;51.660;7.082;2023-08-30T04:46:58;15.70;99.90
5086;DHT22;4715;51.660;7.082;2023-08-30T04:49:21;15.70;99.90
5086;DHT22;4715;51.660;7.082;2023-08-30T04:51:45;15.70;99.90
5086;DHT22;4715;51.660;7.082;2023-08-30T04:54:07;15.70;99.90
5086;DHT22;4715;51.660;7.082;2023-08-30T04:56:32;15.70;99.90
5086;DHT22;4715;51.660;7.082;2023-08-30T04:58:55;15.70;99.90
5086;DHT22;4715;51.660;7.082;2023-08-30T05:01:17;15.60;99.90
5086;DHT22;4715;51.660;7.082;2023-08-30T05:03:39;15.60;99.90
5086;DHT22;4715;51.660;7.082;2023-08-30T05:06:03;15.60;99.90
5086;DHT22;4715;51.660;7.082;2023-08-30T05:08:25;15.60;99.90
5086;DHT22;4715;51.660;7.082;2023-08-30T05:10:47;15.60;99.90
5086;DHT22;4715;51.660;7.082;2023-08-30T05:13:10;15.60;99.90
5086;DHT22;4715;51.660;7.082;2023-08-30T05:15:32;15.60;99.90
5086;DHT22;4715;51.660;7.082;2023-08-30T05:17:58;15.60;99.90
5086;DHT22;4715;51.660;7.082;2023-08-30T05:20:21;15.60;99.90
5086;DHT22;4715;51.660;7.082;2023-08-30T05:22:45;15.60;99.90
5086;DHT22;4715;51.660;7.082;2023-08-30T05:25:09;15.60;99.90
5086;DHT22;4715;51.660;7.082;2023-08-30T05:27:31;15.50;99.90
5086;DHT22;4715;51.660;7.082;2023-08-30T05:29:55;15.50;99.90
5086;DHT22;4715;51.660;7.082;2023-08-30T05:32:17;15.50;99.90
5086;DHT22;4715;51.660;7.082;2023-08-30T05:34:39;15.50;99.90
5086;DHT22;4715;51.660;7.082;2023-08-30T05:37:01;15.50;99.90
5086;DHT22;4715;51.660;7.082;2023-08-30T05:39:26;15.50;99.90
5086;DHT22;4715;51.660;7.082;2023-08-30T05:41:48;15.50;99.90
5086;DHT22;4715;51.660;7.082;2023-08-30T05:44:10;15.50;99.90
5086;DHT22;4715;51.660;7.082;2023-08-30T05:46:32;15.50;99.90
5086;DHT22;4715;51.660;7.082;2023-08-30T05:48:54;15.50;99.90
5086;DHT22;4715;51.660;7.082;2023-08-30T05:51:16;15.50;99.90
5086;DHT22;4715;51.660;7.082;2023-08-30T05:53:40;15.50;99.90
5086;DHT22;4715;51.660;7.082;2023-08-30T05:56:07;15.50;99.90
5086;DHT22;4715;51.660;7.082;2023-08-30T05:58:29;15.50;99.90
5086;DHT22;4715;51.660;7.082;2023-08-30T06:00:51;15.40;99.90
5086;DHT22;4715;51.660;7.082;2023-08-30T06:03:13;15.50;99.90
5086;DHT22;4715;51.660;7.082;2023-08-30T06:05:46;15.40;99.90
5086;DHT22;4715;51.660;7.082;2023-08-30T06:08:09;15.50;99.90
5086;DHT22;4715;51.660;7.082;2023-08-30T06:10:44;15.40;99.90
5086;DHT22;4715;51.660;7.082;2023-08-30T06:13:08;15.50;99.90
5086;DHT22;4715;51.660;7.082;2023-08-30T06:15:30;15.50;99.90
5086;DHT22;4715;51.660;7.082;2023-08-30T06:17:51;15.60;99.90
5086;DHT22;4715;51.660;7.082;2023-08-30T06:20:14;15.60;99.90
5086;DHT22;4715;51.660;7.082;2023-08-30T06:22:36;15.70;99.90
5086;DHT22;4715;51.660;7.082;2023-08-30T06:24:58;15.70;99.90
5086;DHT22;4715;51.660;7.082;2023-08-30T06:27:22;15.70;99.90
5086;DHT22;4715;51.660;7.082;2023-08-30T06:29:46;15.80;99.90
5086;DHT22;4715;51.660;7.082;2023-08-30T06:32:08;15.80;99.90
5086;DHT22;4715;51.660;7.082;2023-08-30T06:34:30;15.90;99.90
5086;DHT22;4715;51.660;7.082;2023-08-30T06:36:56;16.00;99.90
5086;DHT22;4715;51.660;7.082;2023-08-30T06:39:18;16.00;99.90
5086;DHT22;4715;51.660;7.082;2023-08-30T06:41:40;16.20;99.90
5086;DHT22;4715;51.660;7.082;2023-08-30T06:44:02;16.20;99.90
5086;DHT22;4715;51.660;7.082;2023-08-30T06:46:25;16.30;99.90
5086;DHT22;4715;51.660;7.082;2023-08-30T06:48:47;16.30;99.90
5086;DHT22;4715;51.660;7.082;2023-08-30T06:51:09;16.40;99.90
5086;DHT22;4715;51.660;7.082;2023-08-30T06:53:31;16.50;99.90
5086;DHT22;4715;51.660;7.082;2023-08-30T06:56:02;16.50;99.90
5086;DHT22;4715;51.660;7.082;2023-08-30T06:58:24;16.50;99.90
5086;DHT22;4715;51.660;7.082;2023-08-30T07:00:45;16.60;99.90
5086;DHT22;4715;51.660;7.082;2023-08-30T07:03:09;16.60;99.90
5086;DHT22;4715;51.660;7.082;2023-08-30T07:05:30;16.70;99.90
5086;DHT22;4715;51.660;7.082;2023-08-30T07:07:52;16.70;99.90
5086;DHT22;4715;51.660;7.082;2023-08-30T07:10:15;16.80;99.90
5086;DHT22;4715;51.660;7.082;2023-08-30T07:12:37;16.80;99.90
5086;DHT22;4715;51.660;7.082;2023-08-30T07:14:59;16.90;99.90
5086;DHT22;4715;51.660;7.082;2023-08-30T07:17:24;16.90;99.90
5086;DHT22;4715;51.660;7.082;2023-08-30T07:19:47;16.90;99.90
5086;DHT22;4715;51.660;7.082;2023-08-30T07:22:09;16.90;99.90
5086;DHT22;4715;51.660;7.082;2023-08-30T07:24:30;16.90;99.90
5086;DHT22;4715;51.660;7.082;2023-08-30T07:26:52;17.00;99.90
5086;DHT22;4715;51.660;7.082;2023-08-30T07:29:14;17.10;99.90
5086;DHT22;4715;51.660;7.082;2023-08-30T07:31:36;17.20;99.90
5086;DHT22;4715;51.660;7.082;2023-08-30T07:33:58;17.30;99.90
5086;DHT22;4715;51.660;7.082;2023-08-30T07:36:24;17.40;99.90
5086;DHT22;4715;51.660;7.082;2023-08-30T07:38:46;17.50;99.90
5086;DHT22;4715;51.660;7.082;2023-08-30T07:41:09;17.60;99.90
5086;DHT22;4715;51.660;7.082;2023-08-30T07:43:33;17.60;99.90
5086;DHT22;4715;51.660;7.082;2023-08-30T07:45:57;17.70;99.90
5086;DHT22;4715;51.660;7.082;2023-08-30T07:48:21;17.80;99.90
5086;DHT22;4715;51.660;7.082;2023-08-30T07:50:44;17.90;99.90
5086;DHT22;4715;51.660;7.082;2023-08-30T07:53:08;17.90;99.90
5086;DHT22;4715;51.660;7.082;2023-08-30T07:55:32;18.00;99.90
5086;DHT22;4715;51.660;7.082;2023-08-30T07:57:56;18.00;99.90
5086;DHT22;4715;51.660;7.082;2023-08-30T08:00:18;18.10;99.90
5086;DHT22;4715;51.660;7.082;2023-08-30T08:02:41;18.20;99.90
5086;DHT22;4715;51.660;7.082;2023-08-30T08:05:04;18.20;99.90
5086;DHT22;4715;51.660;7.082;2023-08-30T08:07:28;18.30;99.90
5086;DHT22;4715;51.660;7.082;2023-08-30T08:09:52;18.30;99.90
5086;DHT22;4715;51.660;7.082;2023-08-30T08:12:15;18.40;99.90
5086;DHT22;4715;51.660;7.082;2023-08-30T08:14:37;18.50;99.90
5086;DHT22;4715;51.660;7.082;2023-08-30T08:16:59;18.50;99.90
5086;DHT22;4715;51.660;7.082;2023-08-30T08:19:21;18.60;99.90
5086;DHT22;4715;51.660;7.082;2023-08-30T08:21:43;18.60;99.90
5086;DHT22;4715;51.660;7.082;2023-08-30T08:24:06;18.60;99.90
5086;DHT22;4715;51.660;7.082;2023-08-30T08:26:30;18.70;99.90
5086;DHT22;4715;51.660;7.082;2023-08-30T08:28:53;18.70;99.90
5086;DHT22;4715;51.660;7.082;2023-08-30T08:31:15;18.70;99.90
5086;DHT22;4715;51.660;7.082;2023-08-30T08:33:40;18.60;99.90
5086;DHT22;4715;51.660;7.082;2023-08-30T08:36:04;18.50;99.90
5086;DHT22;4715;51.660;7.082;2023-08-30T08:38:26;18.50;99.90
5086;DHT22;4715;51.660;7.082;2023-08-30T08:40:52;18.40;99.90
5086;DHT22;4715;51.660;7.082;2023-08-30T08:43:18;18.30;99.90
5086;DHT22;4715;51.660;7.082;2023-08-30T08:45:40;18.30;99.90
5086;DHT22;4715;51.660;7.082;2023-08-30T08:48:03;18.30;99.90
5086;DHT22;4715;51.660;7.082;2023-08-30T08:50:29;18.30;99.90
5086;DHT22;4715;51.660;7.082;2023-08-30T08:52:51;18.30;99.90
5086;DHT22;4715;51.660;7.082;2023-08-30T08:55:14;18.30;99.90
5086;DHT22;4715;51.660;7.082;2023-08-30T08:57:38;18.40;99.90
5086;DHT22;4715;51.660;7.082;2023-08-30T09:00:04;18.40;99.90
5086;DHT22;4715;51.660;7.082;2023-08-30T09:02:27;18.40;99.90
5086;DHT22;4715;51.660;7.082;2023-08-30T09:04:50;18.40;99.90
5086;DHT22;4715;51.660;7.082;2023-08-30T09:07:14;18.50;99.90
5086;DHT22;4715;51.660;7.082;2023-08-30T09:09:36;18.60;99.90
5086;DHT22;4715;51.660;7.082;2023-08-30T09:11:58;18.60;99.90
5086;DHT22;4715;51.660;7.082;2023-08-30T09:14:20;18.70;99.90
5086;DHT22;4715;51.660;7.082;2023-08-30T09:16:54;18.70;99.90
5086;DHT22;4715;51.660;7.082;2023-08-30T09:19:20;18.70;99.90
5086;DHT22;4715;51.660;7.082;2023-08-30T09:21:50;18.70;99.90
5086;DHT22;4715;51.660;7.082;2023-08-30T09:24:12;18.70;99.90
5086;DHT22;4715;51.660;7.082;2023-08-30T09:26:35;18.60;99.90
5086;DHT22;4715;51.660;7.082;2023-08-30T09:29:04;18.60;99.90
5086;DHT22;4715;51.660;7.082;2023-08-30T09:31:32;18.60;99.90
5086;DHT22;4715;51.660;7.082;2023-08-30T09:33:59;18.50;99.90
5086;DHT22;4715;51.660;7.082;2023-08-30T09:36:22;18.50;99.90
5086;DHT22;4715;51.660;7.082;2023-08-30T09:38:48;18.50;99.90
5086;DHT22;4715;51.660;7.082;2023-08-30T09:41:11;18.40;99.90
5086;DHT22;4715;51.660;7.082;2023-08-30T09:43:35;18.40;99.90
5086;DHT22;4715;51.660;7.082;2023-08-30T09:46:03;18.30;99.90
5086;DHT22;4715;51.660;7.082;2023-08-30T09:48:28;18.20;99.90
5086;DHT22;4715;51.660;7.082;2023-08-30T09:50:53;18.00;99.90
5086;DHT22;4715;51.660;7.082;2023-08-30T09:53:17;17.90;99.90
5086;DHT22;4715;51.660;7.082;2023-08-30T09:55:41;17.70;99.90
5086;DHT22;4715;51.660;7.082;2023-08-30T09:58:05;17.50;99.90
5086;DHT22;4715;51.660;7.082;2023-08-30T10:00:28;17.40;99.90
5086;DHT22;4715;51.660;7.082;2023-08-30T10:02:50;17.30;99.90
5086;DHT22;4715;51.660;7.082;2023-08-30T10:05:14;17.20;99.90
5086;DHT22;4715;51.660;7.082;2023-08-30T10:07:40;17.00;99.90
5086;DHT22;4715;51.660;7.082;2023-08-30T10:10:06;16.90;99.90
5086;DHT22;4715;51.660;7.082;2023-08-30T10:12:44;16.80;99.90
5086;DHT22;4715;51.660;7.082;2023-08-30T10:15:08;16.80;99.90
5086;DHT22;4715;51.660;7.082;2023-08-30T10:17:32;16.80;99.90
5086;DHT22;4715;51.660;7.082;2023-08-30T10:19:55;16.70;99.90
5086;DHT22;4715;51.660;7.082;2023-08-30T10:22:18;16.60;99.90
5086;DHT22;4715;51.660;7.082;2023-08-30T10:24:48;16.60;99.90
5086;DHT22;4715;51.660;7.082;2023-08-30T10:27:12;16.60;99.90
5086;DHT22;4715;51.660;7.082;2023-08-30T10:29:37;16.60;99.90
5086;DHT22;4715;51.660;7.082;2023-08-30T10:32:04;16.50;99.90
5086;DHT22;4715;51.660;7.082;2023-08-30T10:34:32;16.40;99.90
5086;DHT22;4715;51.660;7.082;2023-08-30T10:36:58;16.40;99.90
5086;DHT22;4715;51.660;7.082;2023-08-30T10:39:32;16.30;99.90
5086;DHT22;4715;51.660;7.082;2023-08-30T10:41:57;16.20;99.90
5086;DHT22;4715;51.660;7.082;2023-08-30T10:44:19;16.20;99.90
5086;DHT22;4715;51.660;7.082;2023-08-30T10:46:42;16.20;99.90
5086;DHT22;4715;51.660;7.082;2023-08-30T10:49:14;16.10;99.90
5086;DHT22;4715;51.660;7.082;2023-08-30T10:51:37;16.10;99.90
5086;DHT22;4715;51.660;7.082;2023-08-30T10:53:59;16.10;99.90
5086;DHT22;4715;51.660;7.082;2023-08-30T10:56:30;16.10;99.90
5086;DHT22;4715;51.660;7.082;2023-08-30T10:58:54;16.10;99.90
5086;DHT22;4715;51.660;7.082;2023-08-30T11:01:16;16.00;99.90
5086;DHT22;4715;51.660;7.082;2023-08-30T11:03:42;16.00;99.90
5086;DHT22;4715;51.660;7.082;2023-08-30T11:06:05;15.90;99.90
5086;DHT22;4715;51.660;7.082;2023-08-30T11:08:29;15.90;99.90
5086;DHT22;4715;51.660;7.082;2023-08-30T11:11:01;15.90;99.90
5086;DHT22;4715;51.660;7.082;2023-08-30T11:13:27;15.90;99.90
5086;DHT22;4715;51.660;7.082;2023-08-30T11:15:51;15.90;99.90
5086;DHT22;4715;51.660;7.082;2023-08-30T11:18:19;15.90;99.90
5086;DHT22;4715;51.660;7.082;2023-08-30T11:20:41;15.80;99.90
5086;DHT22;4715;51.660;7.082;2023-08-30T11:23:05;15.80;99.90
5086;DHT22;4715;51.660;7.082;2023-08-30T11:25:27;15.80;99.90
5086;DHT22;4715;51.660;7.082;2023-08-30T11:27:49;15.80;99.90
5086;DHT22;4715;51.660;7.082;2023-08-30T11:30:14;15.80;99.90
5086;DHT22;4715;51.660;7.082;2023-08-30T11:32:39;15.80;99.90
5086;DHT22;4715;51.660;7.082;2023-08-30T11:35:07;15.80;99.90
5086;DHT22;4715;51.660;7.082;2023-08-30T11:37:30;15.80;99.90
5086;DHT22;4715;51.660;7.082;2023-08-30T11:39:52;15.70;99.90
5086;DHT22;4715;51.660;7.082;2023-08-30T11:42:14;15.70;99.90
5086;DHT22;4715;51.660;7.082;2023-08-30T11:44:38;15.70;99.90
5086;DHT22;4715;51.660;7.082;2023-08-30T11:47:03;15.70;99.90
5086;DHT22;4715;51.660;7.082;2023-08-30T11:49:27;15.60;99.90
5086;DHT22;4715;51.660;7.082;2023-08-30T11:51:49;15.60;99.90
5086;DHT22;4715;51.660;7.082;2023-08-30T11:54:13;15.60;99.90
5086;DHT22;4715;51.660;7.082;2023-08-30T11:56:36;15.50;99.90
5086;DHT22;4715;51.660;7.082;2023-08-30T11:58:58;15.50;99.90
5086;DHT22;4715;51.660;7.082;2023-08-30T12:01:24;15.50;99.90
5086;DHT22;4715;51.660;7.082;2023-08-30T12:03:45;15.50;99.90
5086;DHT22;4715;51.660;7.082;2023-08-30T12:06:12;15.50;99.90
5086;DHT22;4715;51.660;7.082;2023-08-30T12:08:35;15.50;99.90
5086;DHT22;4715;51.660;7.082;2023-08-30T12:10:59;15.50;99.90
5086;DHT22;4715;51.660;7.082;2023-08-30T12:13:22;15.60;99.90
5086;DHT22;4715;51.660;7.082;2023-08-30T12:15:48;15.60;99.90
5086;DHT22;4715;51.660;7.082;2023-08-30T12:18:10;15.70;99.90
5086;DHT22;4715;51.660;7.082;2023-08-30T12:20:33;15.70;99.90
5086;DHT22;4715;51.660;7.082;2023-08-30T12:22:59;15.70;99.90
5086;DHT22;4715;51.660;7.082;2023-08-30T12:25:22;15.80;99.90
5086;DHT22;4715;51.660;7.082;2023-08-30T12:27:47;15.80;99.90
5086;DHT22;4715;51.660;7.082;2023-08-30T12:30:11;15.80;99.90
5086;DHT22;4715;51.660;7.082;2023-08-30T12:32:33;15.80;99.90
5086;DHT22;4715;51.660;7.082;2023-08-30T12:34:55;15.80;99.90
5086;DHT22;4715;51.660;7.082;2023-08-30T12:37:17;15.80;99.90
5086;DHT22;4715;51.660;7.082;2023-08-30T12:39:41;15.80;99.90
5086;DHT22;4715;51.660;7.082;2023-08-30T12:42:06;15.80;99.90
5086;DHT22;4715;51.660;7.082;2023-08-30T12:44:28;15.80;99.90
5086;DHT22;4715;51.660;7.082;2023-08-30T12:46:50;15.90;99.90
5086;DHT22;4715;51.660;7.082;2023-08-30T12:49:12;15.90;99.90
5086;DHT22;4715;51.660;7.082;2023-08-30T12:51:35;15.90;99.90
5086;DHT22;4715;51.660;7.082;2023-08-30T12:53:56;15.90;99.90
5086;DHT22;4715;51.660;7.082;2023-08-30T12:56:20;15.90;99.90
5086;DHT22;4715;51.660;7.082;2023-08-30T12:58:42;15.90;99.90
5086;DHT22;4715;51.660;7.082;2023-08-30T13:01:05;15.90;99.90
5086;DHT22;4715;51.660;7.082;2023-08-30T13:03:26;16.00;99.90
5086;DHT22;4715;51.660;7.082;2023-08-30T13:05:48;16.00;99.90
5086;DHT22;4715;51.660;7.082;2023-08-30T13:08:11;16.00;99.90
5086;DHT22;4715;51.660;7.082;2023-08-30T13:10:34;16.00;99.90
5086;DHT22;4715;51.660;7.082;2023-08-30T13:12:58;16.00;99.90
5086;DHT22;4715;51.660;7.082;2023-08-30T13:15:21;16.00;99.90
5086;DHT22;4715;51.660;7.082;2023-08-30T13:17:43;16.00;99.90
5086;DHT22;4715;51.660;7.082;2023-08-30T13:20:09;16.00;99.90
5086;DHT22;4715;51.660;7.082;2023-08-30T13:22:33;16.00;99.90
5086;DHT22;4715;51.660;7.082;2023-08-30T13:24:55;16.00;99.90
5086;DHT22;4715;51.660;7.082;2023-08-30T13:27:18;16.00;99.90
5086;DHT22;4715;51.660;7.082;2023-08-30T13:29:43;16.00;99.90
5086;DHT22;4715;51.660;7.082;2023-08-30T13:32:08;16.00;99.90
5086;DHT22;4715;51.660;7.082;2023-08-30T13:34:30;16.10;99.90
5086;DHT22;4715;51.660;7.082;2023-08-30T13:36:53;16.10;99.90
5086;DHT22;4715;51.660;7.082;2023-08-30T13:39:16;16.20;99.90
5086;DHT22;4715;51.660;7.082;2023-08-30T13:41:40;16.20;99.90
5086;DHT22;4715;51.660;7.082;2023-08-30T13:44:04;16.20;99.90
5086;DHT22;4715;51.660;7.082;2023-08-30T13:46:28;16.20;99.90
5086;DHT22;4715;51.660;7.082;2023-08-30T13:48:54;16.20;99.90
5086;DHT22;4715;51.660;7.082;2023-08-30T13:51:22;16.20;99.90
5086;DHT22;4715;51.660;7.082;2023-08-30T13:53:44;16.20;99.90
5086;DHT22;4715;51.660;7.082;2023-08-30T13:56:06;16.20;99.90
5086;DHT22;4715;51.660;7.082;2023-08-30T13:58:28;16.20;99.90
5086;DHT22;4715;51.660;7.082;2023-08-30T14:00:53;16.10;99.90
5086;DHT22;4715;51.660;7.082;2023-08-30T14:03:17;16.10;99.90
5086;DHT22;4715;51.660;7.082;2023-08-30T14:05:40;16.10;99.90
5086;DHT22;4715;51.660;7.082;2023-08-30T14:08:05;16.00;99.90
5086;DHT22;4715;51.660;7.082;2023-08-30T14:10:28;16.00;99.90
5086;DHT22;4715;51.660;7.082;2023-08-30T14:12:50;16.00;99.90
5086;DHT22;4715;51.660;7.082;2023-08-30T14:15:12;15.90;99.90
5086;DHT22;4715;51.660;7.082;2023-08-30T14:17:34;15.90;99.90
5086;DHT22;4715;51.660;7.082;2023-08-30T14:19:58;15.90;99.90
5086;DHT22;4715;51.660;7.082;2023-08-30T14:22:19;15.90;99.90
5086;DHT22;4715;51.660;7.082;2023-08-30T14:24:41;15.90;99.90
5086;DHT22;4715;51.660;7.082;2023-08-30T14:27:03;16.00;99.90
5086;DHT22;4715;51.660;7.082;2023-08-30T14:29:26;16.10;99.90
5086;DHT22;4715;51.660;7.082;2023-08-30T14:31:48;16.10;99.90
5086;DHT22;4715;51.660;7.082;2023-08-30T14:34:11;16.10;99.90
5086;DHT22;4715;51.660;7.082;2023-08-30T14:36:34;16.00;99.90
5086;DHT22;4715;51.660;7.082;2023-08-30T14:38:56;16.10;99.90
5086;DHT22;4715;51.660;7.082;2023-08-30T14:41:18;16.00;99.90
5086;DHT22;4715;51.660;7.082;2023-08-30T14:43:41;16.00;99.90
5086;DHT22;4715;51.660;7.082;2023-08-30T14:46:09;16.00;99.90
5086;DHT22;4715;51.660;7.082;2023-08-30T14:48:31;15.90;99.90
5086;DHT22;4715;51.660;7.082;2023-08-30T14:50:54;15.90;99.90
5086;DHT22;4715;51.660;7.082;2023-08-30T14:53:19;15.80;99.90
5086;DHT22;4715;51.660;7.082;2023-08-30T14:55:44;15.80;99.90
5086;DHT22;4715;51.660;7.082;2023-08-30T14:58:06;15.80;99.90
5086;DHT22;4715;51.660;7.082;2023-08-30T15:00:28;15.80;99.90
5086;DHT22;4715;51.660;7.082;2023-08-30T15:02:50;15.90;99.90
5086;DHT22;4715;51.660;7.082;2023-08-30T15:05:13;15.90;99.90
5086;DHT22;4715;51.660;7.082;2023-08-30T15:07:35;16.00;99.90
5086;DHT22;4715;51.660;7.082;2023-08-30T15:10:01;16.00;99.90
5086;DHT22;4715;51.660;7.082;2023-08-30T15:12:23;16.10;99.90
5086;DHT22;4715;51.660;7.082;2023-08-30T15:14:46;16.10;99.90
5086;DHT22;4715;51.660;7.082;2023-08-30T15:17:17;16.10;99.90
5086;DHT22;4715;51.660;7.082;2023-08-30T15:19:39;16.10;99.90
5086;DHT22;4715;51.660;7.082;2023-08-30T15:22:01;16.10;99.90
5086;DHT22;4715;51.660;7.082;2023-08-30T15:24:27;16.10;99.90
5086;DHT22;4715;51.660;7.082;2023-08-30T15:26:53;16.10;99.90
5086;DHT22;4715;51.660;7.082;2023-08-30T15:29:16;16.10;99.90
5086;DHT22;4715;51.660;7.082;2023-08-30T15:31:38;16.10;99.90
5086;DHT22;4715;51.660;7.082;2023-08-30T15:34:00;16.00;99.90
5086;DHT22;4715;51.660;7.082;2023-08-30T15:36:23;16.00;99.90
5086;DHT22;4715;51.660;7.082;2023-08-30T15:38:45;15.90;99.90